Shepetivka, Ukraine
Current Conditions -  °F | °C
As of 6:00 PM on Wednesday 22 Oct 2014 (Local Time) from UKLR Reporting Station
Broken Clouds Broken Clouds  
Wind Chill: 57°   Ceiling: 10000
Heat Index: 57°   Visibility: 6mi
Dew Point: 43°   Wind: 13mph
Humidity: 59%   Direction: 90°E
Pressure: 29.68"   Gusts: NA
Location:  50.18°N, 27.07°E
Report Text: UKLR 221500Z 09006MPS 9999 FEW026 BKN100 14/06 Q1005 30090070 NOSIG
Loading
Personal Weather Stations






























Interactive Weather Map
Tropical Storm Tracking
New forecast layout! Learn more

10-Day Weather Forecast

Advertisements
Track Severe Weather on mobile